Time;durP1;ratioP1;P1;durP2;ratioP2;P2;SDS_P1;SDS_P2;PMS_P1;PMS_P2;Temp;Humidity;BMP_temperature;BMP_pressure;BME280_temperature;BME280_humidity;BME280_pressure;Samples;Min_cycle;Max_cycle;Signal;HPM_P1;HPM_P2
2020/12/03 00:01:08;;;;;;;37.08;20.57;;;;;;;0.17;73.73;101043.36;1702970;83;27539;-81
2020/12/03 00:03:52;;;;;;;41.10;21.17;;;;;;;0.16;74.06;101036.90;1716564;83;26861;-81
2020/12/03 00:06:25;;;;;;;31.25;17.20;;;;;;;0.18;73.97;101041.58;1707189;83;25768;-81
2020/12/03 00:09:02;;;;;;;34.60;19.75;;;;;;;0.21;73.87;101043.54;1691164;83;26080;-81
2020/12/03 00:11:34;;;;;;;34.88;18.35;;;;;;;0.18;73.81;101041.58;1697540;82;26580;-81
2020/12/03 00:14:01;;;;;;;34.85;18.85;;;;;;;0.20;73.84;101048.89;1657266;82;28511;-82
2020/12/03 00:16:31;;;;;;;34.83;19.77;;;;;;;0.22;73.86;101064.96;1703147;83;25785;-82
2020/12/03 00:19:00;;;;;;;35.87;19.50;;;;;;;0.26;73.87;101055.03;1707278;82;25864;-81
2020/12/03 00:21:45;;;;;;;39.83;20.70;;;;;;;0.24;73.75;101060.42;1681127;84;25906;-81
2020/12/03 00:24:18;;;;;;;30.68;17.62;;;;;;;0.25;73.85;101058.64;1706830;84;25758;-82
2020/12/03 00:26:45;;;;;;;34.03;19.48;;;;;;;0.24;73.73;101065.69;1698329;82;27548;-82
2020/12/03 00:29:13;;;;;;;29.77;17.00;;;;;;;0.27;73.76;101066.80;1704454;84;25940;-82
2020/12/03 00:31:43;;;;;;;35.30;19.85;;;;;;;0.26;73.44;101077.42;1680277;82;26014;-82
2020/12/03 00:34:12;;;;;;;38.55;19.40;;;;;;;0.23;73.47;101073.72;1705346;82;25822;-82
2020/12/03 00:36:40;;;;;;;31.77;19.07;;;;;;;0.22;73.56;101082.08;1698307;82;25411;-82
2020/12/03 00:39:11;;;;;;;38.90;19.77;;;;;;;0.22;73.56;101082.08;1696439;84;27312;-82
2020/12/03 00:41:39;;;;;;;40.38;20.48;;;;;;;0.24;73.82;101089.87;1669080;84;25958;-83
2020/12/03 00:44:07;;;;;;;28.62;17.23;;;;;;;0.29;73.59;101091.24;1686206;82;25872;-82
2020/12/03 00:46:35;;;;;;;35.78;18.48;;;;;;;0.26;73.62;101095.87;1673792;82;25887;-82
2020/12/03 00:49:03;;;;;;;28.52;16.87;;;;;;;0.26;73.62;101090.13;1719511;82;26027;-82
2020/12/03 00:51:31;;;;;;;38.50;18.70;;;;;;;0.26;73.60;101094.55;1703491;82;28445;-82
2020/12/03 00:54:00;;;;;;;31.65;17.48;;;;;;;0.28;73.68;101091.36;1681323;82;25416;-82
2020/12/03 00:56:28;;;;;;;35.38;19.75;;;;;;;0.30;73.87;101085.51;1701191;84;25820;-82
2020/12/03 00:58:57;;;;;;;35.55;19.57;;;;;;;0.35;73.81;101078.94;1670133;84;25799;-82
2020/12/03 01:01:25;;;;;;;32.55;18.70;;;;;;;0.37;73.65;101066.50;1686491;84;25833;-82
2020/12/03 01:03:52;;;;;;;31.93;17.50;;;;;;;0.38;73.46;101062.92;1684436;84;27539;-82
2020/12/03 01:06:20;;;;;;;36.15;19.48;;;;;;;0.39;73.53;101050.09;1674908;85;25793;-82
2020/12/03 01:08:47;;;;;;;34.10;19.62;;;;;;;0.40;73.56;101043.89;1679645;84;25852;-82
2020/12/03 01:11:20;;;;;;;30.75;18.67;;;;;;;0.37;73.45;101042.78;1638978;84;26374;-82
2020/12/03 01:13:47;;;;;;;33.08;18.17;;;;;;;0.40;73.55;101037.30;1682257;84;26148;-82
2020/12/03 01:16:18;;;;;;;33.92;18.15;;;;;;;0.42;73.47;101030.13;1677476;85;27413;-83
2020/12/03 01:18:46;;;;;;;39.10;18.82;;;;;;;0.43;73.56;101023.88;1652385;84;25942;-82
2020/12/03 01:21:20;;;;;;;37.33;18.62;;;;;;;0.42;73.44;101028.81;1644669;82;25868;-82
2020/12/03 01:23:48;;;;;;;32.48;17.67;;;;;;;0.42;73.21;101024.86;1680636;84;26344;-82
2020/12/03 01:26:20;;;;;;;27.82;16.25;;;;;;;0.38;73.23;101018.13;1680208;84;25869;-82
2020/12/03 01:28:49;;;;;;;26.52;14.80;;;;;;;0.36;72.96;101021.83;1658264;84;27725;-81
2020/12/03 01:31:17;;;;;;;27.25;17.10;;;;;;;0.33;73.17;101014.98;1641145;84;25745;-82
2020/12/03 01:33:44;;;;;;;32.10;17.55;;;;;;;0.30;73.07;101006.47;1681532;84;25819;-82
2020/12/03 01:36:14;;;;;;;34.83;18.17;;;;;;;0.32;73.15;100997.47;1683429;84;26374;-82
2020/12/03 01:38:44;;;;;;;34.23;19.05;;;;;;;0.35;73.31;101002.53;1683588;84;26460;-83
2020/12/03 01:41:12;;;;;;;34.63;18.57;;;;;;;0.40;73.26;100985.08;1679677;84;27539;-82
2020/12/03 01:43:44;;;;;;;33.02;18.50;;;;;;;0.41;73.31;100997.28;1649775;84;25962;-82
2020/12/03 01:46:12;;;;;;;36.33;18.98;;;;;;;0.43;73.31;101000.17;1685477;84;26347;-82
2020/12/03 01:48:54;;;;;;;30.52;18.10;;;;;;;0.42;73.25;100991.06;1661298;83;25763;-82
2020/12/03 01:51:27;;;;;;;29.25;14.93;;;;;;;0.41;73.18;100997.28;1684804;84;25822;-81
2020/12/03 01:54:02;;;;;;;30.23;18.17;;;;;;;0.39;72.93;100996.55;1676534;84;27561;-81
2020/12/03 01:56:53;;;;;;;26.57;15.38;;;;;;;0.38;73.00;101003.64;1676839;84;25755;-81
2020/12/03 01:59:24;;;;;;;31.00;17.80;;;;;;;0.38;73.08;101004.95;1691370;83;25972;-82
2020/12/03 02:01:53;;;;;;;31.62;18.35;;;;;;;0.39;73.07;100986.01;1682087;83;25853;-81
2020/12/03 02:04:21;;;;;;;25.90;15.32;;;;;;;0.38;72.88;100985.66;1688386;83;25844;-81
2020/12/03 02:07:00;;;;;;;31.95;17.77;;;;;;;0.36;72.86;100993.69;1677257;83;27326;-81
2020/12/03 02:09:27;;;;;;;32.67;19.40;;;;;;;0.35;72.98;100990.67;1669993;83;25825;-82
2020/12/03 02:11:56;;;;;;;31.65;17.45;;;;;;;0.35;72.92;100981.92;1684429;83;25807;-81
2020/12/03 02:14:24;;;;;;;29.90;17.40;;;;;;;0.32;72.90;100973.77;1681832;83;26460;-82
2020/12/03 02:16:51;;;;;;;30.10;16.30;;;;;;;0.35;72.37;100970.06;1680187;83;25909;-81
2020/12/03 02:19:32;;;;;;;34.88;16.77;;;;;;;0.31;72.51;100960.23;1683999;83;27475;-81
2020/12/03 02:22:05;;;;;;;29.10;15.90;;;;;;;0.31;72.54;100955.44;1658678;83;26025;-81
2020/12/03 02:24:42;;;;;;;25.57;15.48;;;;;;;0.28;72.54;100944.64;1700588;83;25840;-82
2020/12/03 02:27:13;;;;;;;33.88;18.20;;;;;;;0.30;72.54;100935.33;1695845;83;25836;-81
2020/12/03 02:29:41;;;;;;;33.73;17.67;;;;;;;0.27;72.73;100935.55;1656812;83;25825;-81
2020/12/03 02:32:09;;;;;;;33.10;18.35;;;;;;;0.30;72.72;100939.28;1626279;85;27818;-81
2020/12/03 02:34:37;;;;;;;30.25;17.02;;;;;;;0.30;72.86;100932.20;1644523;84;25937;-81
2020/12/03 02:37:05;;;;;;;26.68;15.80;;;;;;;0.32;72.71;100934.23;1672128;83;25979;-81
2020/12/03 02:39:35;;;;;;;26.77;17.35;;;;;;;0.31;72.65;100939.63;1681473;83;26177;-81
2020/12/03 02:42:08;;;;;;;24.25;15.13;;;;;;;0.29;72.45;100923.10;1681661;83;25927;-81
2020/12/03 02:44:44;;;;;;;26.77;15.72;;;;;;;0.26;72.28;100917.58;1699970;84;27553;-81
2020/12/03 02:47:17;;;;;;;27.20;15.55;;;;;;;0.27;72.43;100925.86;1656422;83;25578;-81
2020/12/03 02:49:45;;;;;;;35.05;17.02;;;;;;;0.29;72.54;100921.31;1679682;84;25440;-81
2020/12/03 02:52:18;;;;;;;28.83;17.15;;;;;;;0.30;72.61;100914.25;1677990;83;25549;-81
2020/12/03 02:54:46;;;;;;;26.50;16.67;;;;;;;0.33;72.57;100920.12;1701332;83;25407;-81
2020/12/03 02:57:13;;;;;;;28.65;16.40;;;;;;;0.31;71.79;100917.23;1681718;84;27467;-81
2020/12/03 02:59:41;;;;;;;31.60;17.05;;;;;;;0.27;72.28;100915.32;1729759;81;26148;-81
2020/12/03 03:02:08;;;;;;;30.82;16.87;;;;;;;0.26;72.28;100904.87;1688617;81;25447;-81
2020/12/03 03:04:36;;;;;;;28.23;16.73;;;;;;;0.24;72.19;100912.90;1723801;81;25870;-81
2020/12/03 03:07:03;;;;;;;28.10;15.93;;;;;;;0.22;72.12;100910.86;1711537;81;25872;-81
2020/12/03 03:09:31;;;;;;;27.65;16.10;;;;;;;0.21;72.32;100912.30;1702240;81;28255;-81
2020/12/03 03:11:58;;;;;;;30.32;17.05;;;;;;;0.21;72.48;100903.08;1680312;83;25812;-82
2020/12/03 03:14:26;;;;;;;31.27;16.35;;;;;;;0.27;72.58;100906.56;1711347;81;26031;-81
2020/12/03 03:16:53;;;;;;;24.32;15.63;;;;;;;0.31;72.57;100901.43;1708263;81;25549;-81
2020/12/03 03:19:20;;;;;;;28.52;17.17;;;;;;;0.35;72.59;100897.14;1716015;81;25834;-81
2020/12/03 03:21:48;;;;;;;29.27;16.57;;;;;;;0.35;72.38;100894.97;1709307;81;28576;-81
2020/12/03 03:24:15;;;;;;;24.35;15.03;;;;;;;0.32;72.46;100892.09;1677313;81;25851;-82
2020/12/03 03:26:44;;;;;;;31.33;18.25;;;;;;;0.32;72.37;100881.55;1688967;83;25944;-81
2020/12/03 03:29:12;;;;;;;30.17;15.83;;;;;;;0.26;72.23;100867.52;1706924;81;25729;-82
2020/12/03 03:31:40;;;;;;;28.30;16.85;;;;;;;0.24;72.39;100850.99;1684092;83;26328;-82
2020/12/03 03:34:08;;;;;;;26.10;15.23;;;;;;;0.20;72.22;100837.69;1668318;81;27540;-81
2020/12/03 03:36:36;;;;;;;30.70;17.85;;;;;;;0.17;72.25;100824.73;1708191;81;25878;-81
2020/12/03 03:39:06;;;;;;;28.62;16.75;;;;;;;0.15;72.34;100819.25;1705708;83;25849;-81
2020/12/03 03:41:34;;;;;;;32.08;17.10;;;;;;;0.11;72.29;100805.45;1695631;81;26288;-81
2020/12/03 03:44:02;;;;;;;27.75;16.23;;;;;;;0.07;72.17;100801.84;1687861;81;25851;-81
2020/12/03 03:46:29;;;;;;;26.35;16.17;;;;;;;-0.02;72.19;100803.37;1706807;83;28522;-81
2020/12/03 03:48:56;;;;;;;28.17;17.20;;;;;;;-0.05;72.50;100816.78;1707738;81;25758;-82
2020/12/03 03:51:24;;;;;;;24.47;15.40;;;;;;;-0.07;72.41;100820.86;1708238;81;25924;-81
2020/12/03 03:53:51;;;;;;;29.80;16.82;;;;;;;-0.11;72.56;100816.74;1675467;83;25797;-81
2020/12/03 03:56:19;;;;;;;32.25;17.25;;;;;;;-0.12;72.64;100821.66;1703775;81;25945;-82
2020/12/03 03:58:46;;;;;;;27.50;16.93;;;;;;;-0.14;72.62;100822.72;1675684;83;27080;-81
2020/12/03 04:01:13;;;;;;;27.35;15.43;;;;;;;-0.17;72.67;100811.94;1683363;81;25935;-81
2020/12/03 04:03:41;;;;;;;26.60;15.43;;;;;;;-0.18;72.73;100807.64;1662957;84;25976;-81
2020/12/03 04:06:08;;;;;;;34.03;17.73;;;;;;;-0.19;72.81;100813.00;1691157;83;26613;-81
2020/12/03 04:08:35;;;;;;;34.10;18.60;;;;;;;-0.22;72.78;100817.19;1688888;83;25824;-81
2020/12/03 04:11:03;;;;;;;32.42;18.02;;;;;;;-0.26;72.91;100809.16;1656089;83;27615;-81
2020/12/03 04:13:30;;;;;;;26.40;15.18;;;;;;;-0.30;72.99;100809.02;1671550;81;26240;-81
2020/12/03 04:15:57;;;;;;;32.60;18.65;;;;;;;-0.33;73.03;100803.50;1695446;82;25717;-81
2020/12/03 04:18:27;;;;;;;30.90;17.55;;;;;;;-0.36;73.11;100797.14;1691993;84;26005;-81
2020/12/03 04:21:00;;;;;;;33.20;17.82;;;;;;;-0.38;73.22;100796.87;1668349;82;26425;-81
2020/12/03 04:23:28;;;;;;;31.07;19.48;;;;;;;-0.39;73.36;100815.80;1647368;83;27600;-82
2020/12/03 04:25:55;;;;;;;31.60;18.50;;;;;;;-0.39;73.51;100828.11;1672963;82;25869;-83
2020/12/03 04:28:23;;;;;;;34.45;19.50;;;;;;;-0.40;73.72;100834.31;1702078;82;25482;-81
2020/12/03 04:30:50;;;;;;;36.23;19.55;;;;;;;-0.40;73.75;100842.20;1664233;82;25933;-81
2020/12/03 04:33:17;;;;;;;32.88;19.27;;;;;;;-0.38;73.94;100839.83;1669482;84;25823;-81
2020/12/03 04:35:46;;;;;;;36.73;20.82;;;;;;;-0.35;73.95;100839.63;1673191;82;27549;-81
2020/12/03 04:38:14;;;;;;;33.45;19.48;;;;;;;-0.32;73.92;100829.36;1701542;82;26198;-81
2020/12/03 04:40:45;;;;;;;31.37;17.20;;;;;;;-0.28;73.92;100827.67;1703635;82;25825;-81
2020/12/03 04:43:35;;;;;;;32.55;18.87;;;;;;;-0.24;73.96;100822.58;1669389;84;25846;-81
2020/12/03 04:46:40;;;;;;;36.63;19.27;;;;;;;-0.24;73.89;100812.05;1676679;83;26324;-81
2020/12/03 04:52:22;;;;;;;31.75;17.27;;;;;;;-0.19;73.87;100803.31;1867102;76;25721;-81
2020/12/03 04:54:58;;;;;;;34.73;18.48;;;;;;;-0.26;73.82;100800.80;1796465;78;25883;-81
2020/12/03 04:57:43;;;;;;;38.25;20.62;;;;;;;-0.27;73.90;100807.47;1767174;79;28081;-81
2020/12/03 05:00:38;;;;;;;35.98;19.27;;;;;;;-0.27;73.97;100800.88;1757151;80;25915;-81
2020/12/03 05:03:34;;;;;;;37.75;18.10;;;;;;;-0.27;73.99;100800.42;1765644;79;25722;-81
2020/12/03 05:06:38;;;;;;;35.17;18.98;;;;;;;-0.27;74.00;100810.95;1726573;82;25892;-81
2020/12/03 05:09:22;;;;;;;30.43;18.30;;;;;;;-0.27;74.10;100812.73;1731227;81;26146;-81
2020/12/03 05:11:58;;;;;;;32.05;18.57;;;;;;;-0.27;74.13;100813.58;1748520;81;28525;-82
2020/12/03 05:14:52;;;;;;;32.90;18.00;;;;;;;-0.27;74.20;100808.31;1730548;81;26107;-81
2020/12/03 05:17:58;;;;;;;32.40;18.23;;;;;;;-0.23;74.30;100804.97;1711997;81;25954;-82
2020/12/03 05:20:31;;;;;;;31.85;18.10;;;;;;;-0.17;74.23;100811.13;1707204;83;26196;-81
2020/12/03 05:23:23;;;;;;;31.75;18.48;;;;;;;-0.12;74.22;100812.91;1827252;77;25674;-82
2020/12/03 05:25:54;;;;;;;36.03;18.98;;;;;;;-0.15;74.16;100809.22;1801133;78;26218;-81
2020/12/03 05:28:29;;;;;;;36.45;19.23;;;;;;;-0.15;74.14;100811.34;1783233;79;27586;-81
2020/12/03 05:31:17;;;;;;;31.65;18.23;;;;;;;-0.12;74.22;100805.02;1760717;80;26120;-82
2020/12/03 05:33:45;;;;;;;32.42;19.82;;;;;;;-0.09;74.11;100797.75;1774000;79;25667;-81
2020/12/03 05:36:29;;;;;;;36.70;19.45;;;;;;;-0.10;74.00;100797.84;1761788;79;26223;-81
2020/12/03 05:38:59;;;;;;;38.15;19.35;;;;;;;-0.11;74.03;100787.78;1751203;80;25892;-81
2020/12/03 05:41:31;;;;;;;32.03;17.95;;;;;;;-0.11;74.04;100781.70;1677610;81;27614;-81
2020/12/03 05:43:59;;;;;;;38.55;22.00;;;;;;;-0.08;74.03;100777.03;1744508;81;25865;-81
2020/12/03 05:46:27;;;;;;;43.90;24.32;;;;;;;-0.07;73.92;100788.41;1717123;81;25842;-81
2020/12/03 05:49:02;;;;;;;44.10;24.55;;;;;;;-0.11;73.78;100777.25;1683398;82;26109;-81
2020/12/03 05:51:33;;;;;;;48.20;23.95;;;;;;;-0.15;73.83;100774.48;1724238;82;26144;-81
2020/12/03 05:54:06;;;;;;;;;;;;;;;-0.18;73.89;100774.73;1680849;82;27543;-81
2020/12/03 05:56:33;;;;;;;58.23;28.87;;;;;;;-0.18;73.97;100767.30;1721313;82;26066;-81
2020/12/03 05:59:18;;;;;;;60.10;29.52;;;;;;;-0.19;74.08;100761.20;1698861;82;25846;-81
2020/12/03 06:02:03;;;;;;;76.53;36.88;;;;;;;-0.17;74.02;100760.60;1717430;82;25952;-81
2020/12/03 06:04:38;;;;;;;73.57;37.42;;;;;;;-0.17;74.11;100754.52;1748992;81;26473;-81
2020/12/03 06:07:14;;;;;;;80.30;40.83;;;;;;;-0.22;73.96;100756.18;1709345;81;27324;-82
2020/12/03 06:10:07;;;;;;;71.72;37.17;;;;;;;-0.26;73.97;100749.47;1734952;81;26210;-81
2020/12/03 06:13:04;;;;;;;71.05;36.55;;;;;;;-0.26;74.06;100745.52;1749494;81;25936;-81
2020/12/03 06:16:02;;;;;;;72.30;37.78;;;;;;;-0.26;74.03;100739.41;1739728;81;25783;-81
2020/12/03 06:18:56;;;;;;;73.28;38.13;;;;;;;-0.33;73.99;100734.23;1707265;82;25891;-82
2020/12/03 06:21:32;;;;;;;71.00;37.35;;;;;;;-0.37;74.06;100736.27;1722857;82;27653;-81
2020/12/03 06:24:28;;;;;;;72.55;35.85;;;;;;;-0.36;74.15;100730.03;1728986;81;25828;-81
2020/12/03 06:27:25;;;;;;;84.65;44.65;;;;;;;-0.41;74.16;100728.23;1724601;82;25970;-81
2020/12/03 06:30:21;;;;;;;87.37;45.40;;;;;;;-0.45;74.25;100722.81;1690562;81;25722;-81
2020/12/03 06:33:03;;;;;;;81.55;40.88;;;;;;;-0.45;74.35;100719.37;1739213;81;26117;-81
2020/12/03 06:35:42;;;;;;;83.07;41.63;;;;;;;-0.50;74.44;100714.91;1722009;81;27491;-82
2020/12/03 06:38:14;;;;;;;72.90;36.42;;;;;;;-0.48;74.52;100724.38;1710173;82;25897;-81
2020/12/03 06:40:47;;;;;;;66.10;35.05;;;;;;;-0.48;74.53;100723.05;1719570;81;25801;-81
2020/12/03 06:43:32;;;;;;;65.00;34.33;;;;;;;-0.48;74.54;100720.89;1714552;82;26157;-81
2020/12/03 06:46:25;;;;;;;67.17;35.58;;;;;;;-0.53;74.58;100717.28;1747361;81;26321;-81
2020/12/03 06:49:30;;;;;;;58.63;30.30;;;;;;;-0.54;74.69;100709.52;1720342;82;28448;-81
2020/12/03 06:52:23;;;;;;;54.73;29.00;;;;;;;-0.58;75.10;100698.86;1725840;82;25970;-81
2020/12/03 06:55:08;;;;;;;50.78;27.30;;;;;;;-0.60;74.93;100704.71;1676619;82;26470;-81
2020/12/03 06:58:08;;;;;;;62.53;30.20;;;;;;;-0.61;74.95;100719.65;1682522;83;25905;-81
2020/12/03 07:00:43;;;;;;;43.67;23.77;;;;;;;-0.58;75.14;100727.80;1708313;82;26039;-81
2020/12/03 07:03:25;;;;;;;47.98;25.32;;;;;;;-0.55;75.09;100744.19;1725502;82;27554;-81
2020/12/03 07:06:44;;;;;;;53.63;28.25;;;;;;;-0.54;75.05;100734.51;1705773;82;25857;-81
2020/12/03 07:09:31;;;;;;;51.18;26.87;;;;;;;-0.58;74.80;100729.95;1722207;82;25911;-81
2020/12/03 07:12:33;;;;;;;60.23;30.17;;;;;;;-0.60;75.18;100731.86;1705991;83;25891;-81
2020/12/03 07:15:30;;;;;;;51.45;28.40;;;;;;;-0.61;75.26;100730.17;1712680;82;25780;-81
2020/12/03 07:18:23;;;;;;;63.60;34.95;;;;;;;-0.62;75.35;100732.42;1706145;83;28456;-81
2020/12/03 07:21:18;;;;;;;57.53;28.00;;;;;;;-0.61;75.44;100736.75;1719910;82;26430;-81
2020/12/03 07:24:09;;;;;;;70.72;44.08;;;;;;;-0.63;75.48;100721.55;1722516;82;25629;-81
2020/12/03 07:27:29;;;;;;;49.73;27.17;;;;;;;-0.59;75.36;100731.36;1727485;82;25805;-81
2020/12/03 07:30:10;;;;;;;61.42;36.83;;;;;;;-0.58;75.50;100726.02;1713859;83;26225;-81
2020/12/03 07:33:06;;;;;;;64.37;42.60;;;;;;;-0.59;75.61;100728.27;1722170;82;28121;-81
2020/12/03 07:35:55;;;;;;;63.60;40.92;;;;;;;-0.57;75.62;100720.25;1691455;82;26180;-81
2020/12/03 07:38:34;;;;;;;54.93;29.25;;;;;;;-0.55;75.70;100717.03;1699034;82;26468;-83
2020/12/03 07:41:02;;;;;;;50.83;27.52;;;;;;;-0.53;75.70;100707.23;1710602;82;25866;-81
2020/12/03 07:43:39;;;;;;;50.28;25.52;;;;;;;-0.51;75.77;100704.04;1705405;82;25864;-81
2020/12/03 07:46:32;;;;;;;46.45;22.75;;;;;;;-0.48;75.56;100707.74;1709983;82;27534;-82
2020/12/03 07:49:00;;;;;;;49.20;26.25;;;;;;;-0.45;75.75;100704.39;1728375;81;25797;-81
2020/12/03 07:51:28;;;;;;;52.50;27.50;;;;;;;-0.45;75.75;100697.81;1697475;81;25877;-81
2020/12/03 07:54:19;;;;;;;54.38;26.48;;;;;;;-0.40;75.88;100692.21;1700963;82;25744;-81
2020/12/03 07:56:50;;;;;;;;;;;;;;;-0.37;75.68;100682.78;1711698;82;25769;-81
2020/12/03 07:59:29;;;;;;;40.33;21.70;;;;;;;-0.38;75.75;100673.20;1714891;82;27668;-82
2020/12/03 08:01:59;;;;;;;63.28;30.92;;;;;;;-0.41;75.73;100670.34;1708649;82;26067;-81
2020/12/03 08:04:36;;;;;;;50.17;25.52;;;;;;;-0.37;75.77;100662.58;1740321;81;25807;-81
2020/12/03 08:07:18;;;;;;;50.03;25.17;;;;;;;-0.32;75.58;100662.23;1688385;82;25533;-81
2020/12/03 08:09:47;;;;;;;62.73;30.15;;;;;;;-0.32;75.53;100655.66;1741281;81;25780;-82
2020/12/03 08:12:22;;;;;;;54.88;29.05;;;;;;;-0.31;75.58;100656.84;1699418;81;27559;-81
2020/12/03 08:14:56;;;;;;;52.78;26.90;;;;;;;-0.35;75.54;100650.61;1721482;82;25826;-82
2020/12/03 08:17:29;;;;;;;47.58;25.90;;;;;;;-0.30;75.63;100670.34;1717331;82;25982;-82
2020/12/03 08:20:16;;;;;;;47.03;26.37;;;;;;;-0.28;75.61;100675.52;1741163;81;25335;-81
2020/12/03 08:22:49;;;;;;;47.03;24.27;;;;;;;-0.26;75.52;100671.83;1702862;82;25936;-81
2020/12/03 08:25:29;;;;;;;44.27;23.85;;;;;;;-0.27;75.39;100666.66;1700229;82;27610;-82
2020/12/03 08:28:07;;;;;;;46.60;24.25;;;;;;;-0.24;75.39;100667.75;1828079;76;26282;-82
2020/12/03 08:30:35;;;;;;;48.13;25.30;;;;;;;-0.27;75.47;100666.66;1789109;78;26019;-81
2020/12/03 08:33:35;;;;;;;50.43;31.52;;;;;;;-0.24;75.51;100664.65;1789027;78;27601;-81
2020/12/03 08:36:07;;;;;;;45.45;26.57;;;;;;;-0.21;75.40;100663.55;1713133;82;25829;-80
2020/12/03 08:38:40;;;;;;;49.13;26.35;;;;;;;-0.21;75.38;100668.81;1737623;80;26127;-81
2020/12/03 08:41:15;;;;;;;57.03;26.97;;;;;;;-0.18;75.37;100672.55;1718893;81;25893;-80
2020/12/03 08:43:47;;;;;;;58.35;27.87;;;;;;;-0.17;75.16;100675.55;1728172;82;25782;-81
2020/12/03 08:48:54;;;;;;;171.93;71.33;;;;;;;-0.11;75.12;100661.91;1838530;77;25721;-81
2020/12/03 08:51:22;;;;;;;144.28;66.77;;;;;;;-0.17;75.13;100668.47;1754005;80;25861;-81
2020/12/03 08:53:51;;;;;;;191.10;95.42;;;;;;;-0.13;75.16;100669.91;1728282;82;27530;-81
2020/12/03 08:56:27;;;;;;;66.25;36.80;;;;;;;-0.08;74.99;100673.51;1699833;83;25859;-81
2020/12/03 08:59:18;;;;;;;73.10;39.55;;;;;;;-0.09;74.87;100666.58;1642999;83;25474;-81
2020/12/03 09:01:50;;;;;;;122.70;66.12;;;;;;;-0.09;74.98;100673.16;1709175;81;25976;-81
2020/12/03 09:04:24;;;;;;;60.12;35.92;;;;;;;-0.05;74.89;100672.81;1705774;83;25910;-81
2020/12/03 09:06:54;;;;;;;50.43;28.05;;;;;;;-0.01;74.98;100681.31;1701367;83;27614;-81
2020/12/03 09:09:25;;;;;;;63.20;40.05;;;;;;;0.03;75.05;100670.89;1692574;81;25860;-81
2020/12/03 09:11:56;;;;;;;58.02;30.10;;;;;;;0.04;74.63;100677.86;1710378;82;25947;-81
2020/12/03 09:14:27;;;;;;;58.20;32.90;;;;;;;0.05;74.66;100672.09;1737551;81;26325;-81
2020/12/03 09:16:59;;;;;;;70.35;36.88;;;;;;;0.07;74.63;100668.38;1662552;83;25816;-80
2020/12/03 09:19:36;;;;;;;76.02;34.25;;;;;;;0.15;74.66;100671.76;1792903;79;25696;-81
2020/12/03 09:22:09;;;;;;;53.50;28.17;;;;;;;0.13;74.46;100663.95;1717101;80;25680;-79
2020/12/03 09:24:38;;;;;;;60.60;33.92;;;;;;;0.17;74.29;100663.26;1764249;79;27522;-80
2020/12/03 09:27:11;;;;;;;59.27;34.33;;;;;;;0.18;74.28;100662.28;1716571;80;25862;-80
2020/12/03 09:29:39;;;;;;;64.27;36.80;;;;;;;0.21;74.11;100656.79;1710337;82;25853;-80
2020/12/03 09:32:12;;;;;;;81.85;45.15;;;;;;;0.21;73.87;100650.20;1709541;82;25638;-80
2020/12/03 09:34:43;;;;;;;62.33;33.65;;;;;;;0.21;74.04;100648.89;1734971;79;26461;-80
2020/12/03 09:37:11;;;;;;;85.67;45.17;;;;;;;0.24;74.17;100645.53;1705256;82;29237;-80
2020/12/03 09:39:40;;;;;;;58.68;31.73;;;;;;;0.29;73.98;100639.90;1672976;83;25819;-82
2020/12/03 09:42:14;;;;;;;56.90;31.17;;;;;;;0.31;73.46;100644.09;1642494;83;25857;-81
2020/12/03 09:44:47;;;;;;;69.92;34.58;;;;;;;0.29;73.09;100643.85;1683751;83;26303;-81
2020/12/03 09:47:18;;;;;;;52.00;28.12;;;;;;;0.27;73.34;100643.14;1645820;83;25842;-82
2020/12/03 09:49:47;;;;;;;86.17;46.90;;;;;;;0.24;73.28;100644.20;1672193;83;27404;-79
2020/12/03 09:52:16;;;;;;;106.97;56.70;;;;;;;0.22;73.37;100642.17;1662126;83;25822;-80
2020/12/03 09:54:44;;;;;;;64.67;36.58;;;;;;;0.21;73.49;100630.45;1684166;83;25753;-77
2020/12/03 09:57:12;;;;;;;52.80;29.90;;;;;;;0.18;73.29;100631.52;1624248;85;26271;-77
2020/12/03 09:59:41;;;;;;;52.15;29.60;;;;;;;0.16;73.23;100623.37;1623194;85;25559;-79
2020/12/03 10:02:17;;;;;;;73.92;44.35;;;;;;;0.13;73.10;100608.64;1655048;85;28319;-80
2020/12/03 10:05:14;;;;;;;69.35;39.20;;;;;;;0.11;73.24;100599.22;1673609;85;25788;-80
2020/12/03 10:08:26;;;;;;;70.37;39.35;;;;;;;0.14;73.56;100603.75;1647913;85;25909;-80
2020/12/03 10:11:48;;;;;;;69.35;42.17;;;;;;;0.17;73.57;100591.64;1642235;85;25904;-79
2020/12/03 10:14:54;;;;;;;44.10;23.80;;;;;;;0.16;73.33;100599.67;1657284;85;25938;-79
2020/12/03 10:17:29;;;;;;;42.43;24.02;;;;;;;0.18;73.36;100603.87;1666665;83;27600;-79
2020/12/03 10:19:57;;;;;;;56.58;33.70;;;;;;;0.18;73.33;100589.38;1651723;85;26170;-80
2020/12/03 10:22:30;;;;;;;54.77;29.55;;;;;;;0.22;73.28;100579.43;1674209;85;25729;-80
2020/12/03 10:25:20;;;;;;;55.40;28.32;;;;;;;0.27;73.29;100578.59;1646417;85;25820;-79
2020/12/03 10:28:00;;;;;;;50.77;26.90;;;;;;;0.28;73.00;100572.39;1671454;83;25916;-81
2020/12/03 10:30:37;;;;;;;46.83;27.00;;;;;;;0.25;72.68;100571.30;1656085;85;28512;-79
2020/12/03 10:33:16;;;;;;;48.02;26.07;;;;;;;0.22;72.73;100577.64;1656597;85;26015;-77
2020/12/03 10:35:49;;;;;;;49.18;25.35;;;;;;;0.22;73.15;100573.69;1644743;83;25730;-77
2020/12/03 10:38:23;;;;;;;;;;;;;;;0.22;72.76;100576.80;1618795;85;26382;-78
2020/12/03 10:40:56;;;;;;;67.55;33.98;;;;;;;0.19;72.65;100563.41;1587782;86;25970;-78
2020/12/03 10:43:30;;;;;;;118.00;54.60;;;;;;;0.14;72.89;100558.98;1639765;86;27529;-84
2020/12/03 10:46:03;;;;;;;53.73;30.00;;;;;;;0.17;73.04;100563.98;1608680;86;25920;-82
2020/12/03 10:48:37;;;;;;;53.02;31.70;;;;;;;0.23;73.17;100554.31;1650987;83;25903;-82
2020/12/03 10:51:08;;;;;;;48.85;27.70;;;;;;;0.29;73.32;100555.60;1680051;83;26178;-82
2020/12/03 10:53:43;;;;;;;47.93;25.95;;;;;;;0.36;73.41;100544.47;1648402;84;25844;-82
2020/12/03 11:01:17;;;;;;;49.67;23.90;;;;;;;0.43;72.93;100545.63;1674471;83;25997;-81
2020/12/03 11:03:46;;;;;;;48.80;25.70;;;;;;;0.45;73.13;100529.72;1681544;85;25913;-81
2020/12/03 11:06:15;;;;;;;67.82;34.73;;;;;;;0.49;73.06;100535.09;1659035;84;26136;-81
2020/12/03 11:08:44;;;;;;;59.63;29.82;;;;;;;0.50;72.79;100540.23;1654673;85;26093;-81
2020/12/03 11:11:11;;;;;;;52.75;26.05;;;;;;;0.56;73.21;100532.30;1642775;85;27537;-81
2020/12/03 11:13:42;;;;;;;54.60;26.45;;;;;;;0.58;72.72;100535.16;1658052;85;26260;-81
2020/12/03 11:16:12;;;;;;;49.00;25.50;;;;;;;0.54;72.43;100531.11;1659186;85;25647;-82
2020/12/03 11:18:44;;;;;;;46.15;23.70;;;;;;;0.52;72.38;100534.34;1659534;85;25847;-81
2020/12/03 11:21:25;;;;;;;49.60;25.20;;;;;;;0.49;72.52;100531.14;1682540;85;25852;-82
2020/12/03 11:24:17;;;;;;;48.73;26.00;;;;;;;0.47;72.59;100531.23;1660335;85;27553;-81
2020/12/03 11:26:46;;;;;;;45.78;23.98;;;;;;;0.48;72.88;100534.25;1661456;85;25810;-81
2020/12/03 11:29:16;;;;;;;49.35;25.62;;;;;;;0.50;72.94;100531.00;1682929;85;25898;-83
2020/12/03 11:31:45;;;;;;;51.90;27.22;;;;;;;0.57;73.14;100521.64;1640337;85;25881;-81
2020/12/03 11:34:12;;;;;;;50.70;28.10;;;;;;;0.63;73.04;100526.41;1638832;85;26700;-81
2020/12/03 11:39:19;;;;;;;49.40;27.93;;;;;;;0.72;72.70;100518.23;1821308;77;25765;-82
2020/12/03 11:42:09;;;;;;;48.28;25.70;;;;;;;0.66;72.55;100519.55;1740250;78;25815;-82
2020/12/03 11:49:38;;;;;;;53.33;26.20;;;;;;;0.61;72.34;100510.36;1763386;80;25813;-81
2020/12/03 11:52:15;;;;;;;44.08;24.75;;;;;;;0.59;72.25;100501.75;1739229;80;25895;-82
2020/12/03 11:54:44;;;;;;;55.70;27.85;;;;;;;0.57;72.46;100501.88;1771360;78;25923;-82
2020/12/03 11:57:14;;;;;;;45.43;25.45;;;;;;;0.59;72.61;100503.06;1742608;80;27532;-82
2020/12/03 11:59:42;;;;;;;57.83;29.10;;;;;;;0.60;72.40;100496.81;1716456;81;25857;-82
2020/12/03 12:02:11;;;;;;;47.58;26.60;;;;;;;0.61;72.73;100491.44;1685649;83;25870;-81
2020/12/03 12:04:53;;;;;;;50.00;25.82;;;;;;;0.64;72.69;100481.13;1700528;83;26122;-82
2020/12/03 12:12:41;;;;;;;59.13;31.33;;;;;;;0.78;72.76;100456.61;1731627;80;25461;-81
2020/12/03 12:15:08;;;;;;;60.00;29.18;;;;;;;0.85;72.88;100453.45;1730996;81;27538;-81